createdAt,value
2022-08-20T00:02:15.141Z,71.70
2022-08-20T00:04:43.054Z,72.20
2022-08-20T00:07:11.280Z,72.00
2022-08-20T00:09:39.107Z,71.50
2022-08-20T00:12:08.209Z,72.00
2022-08-20T00:14:36.959Z,72.50
2022-08-20T00:17:06.066Z,72.60
2022-08-20T00:19:34.592Z,72.60
2022-08-20T00:22:02.435Z,72.30
2022-08-20T00:24:30.286Z,72.60
2022-08-20T00:26:58.057Z,72.20
2022-08-20T00:29:25.850Z,72.30
2022-08-20T00:31:53.654Z,72.70
2022-08-20T00:34:21.589Z,72.30
2022-08-20T00:36:49.435Z,72.40
2022-08-20T00:39:17.249Z,72.20
2022-08-20T00:41:46.006Z,71.80
2022-08-20T00:44:22.617Z,72.10
2022-08-20T00:46:51.967Z,72.20
2022-08-20T00:49:31.876Z,72.00
2022-08-20T00:52:08.678Z,72.30
2022-08-20T00:54:53.374Z,73.00
2022-08-20T00:58:01.253Z,72.90
2022-08-20T01:00:37.880Z,73.00
2022-08-20T01:03:09.998Z,72.70
2022-08-20T01:05:48.520Z,72.40
2022-08-20T01:08:21.396Z,72.30
2022-08-20T01:10:53.822Z,73.40
2022-08-20T01:13:24.113Z,72.70
2022-08-20T01:15:56.147Z,72.50
2022-08-20T01:18:27.711Z,73.00
2022-08-20T01:21:00.598Z,73.60
2022-08-20T01:24:12.136Z,73.70
2022-08-20T01:26:45.859Z,74.00
2022-08-20T01:29:29.345Z,73.70
2022-08-20T01:32:01.517Z,74.30
2022-08-20T01:34:29.520Z,74.00
2022-08-20T01:36:58.642Z,73.80
2022-08-20T01:39:32.111Z,73.90
2022-08-20T01:42:22.948Z,73.70
2022-08-20T01:44:50.732Z,73.90
2022-08-20T01:47:25.166Z,74.10
2022-08-20T01:50:06.142Z,73.80
2022-08-20T01:53:09.959Z,73.90
2022-08-20T01:55:38.713Z,74.50
2022-08-20T01:58:06.576Z,74.80
2022-08-20T02:00:35.724Z,74.90
2022-08-20T02:03:03.885Z,74.70
2022-08-20T02:05:33.942Z,75.40
2022-08-20T02:08:02.419Z,75.00
2022-08-20T02:10:31.900Z,75.50
2022-08-20T02:13:01.590Z,75.50
2022-08-20T02:15:37.133Z,75.10
2022-08-20T02:18:14.858Z,75.20
2022-08-20T02:20:44.596Z,75.80
2022-08-20T02:23:13.479Z,75.60
2022-08-20T02:25:45.124Z,75.60
2022-08-20T02:28:16.635Z,75.80
2022-08-20T02:30:49.317Z,75.80
2022-08-20T02:33:24.306Z,75.90
2022-08-20T02:35:56.424Z,76.30
2022-08-20T02:38:25.389Z,76.00
2022-08-20T02:40:53.441Z,75.90
2022-08-20T02:43:21.615Z,75.90
2022-08-20T02:45:49.465Z,76.20
2022-08-20T02:48:21.740Z,76.10
2022-08-20T02:51:01.412Z,76.20
2022-08-20T02:53:35.550Z,76.20
2022-08-20T02:56:08.673Z,75.90
2022-08-20T02:58:37.868Z,75.70
2022-08-20T03:01:12.601Z,75.70
2022-08-20T03:03:42.356Z,75.90
2022-08-20T03:06:13.151Z,75.60
2022-08-20T03:08:41.308Z,75.50
2022-08-20T03:11:09.233Z,75.60
2022-08-20T03:13:37.649Z,76.00
2022-08-20T03:16:07.520Z,75.90
2022-08-20T03:18:40.530Z,76.10
2022-08-20T03:21:09.893Z,76.10
2022-08-20T03:23:40.335Z,76.50
2022-08-20T03:26:11.814Z,76.90
2022-08-20T03:28:41.456Z,77.20
2022-08-20T03:31:10.233Z,77.70
2022-08-20T03:33:48.864Z,77.70
2022-08-20T03:36:27.859Z,78.20
2022-08-20T03:38:59.428Z,78.30
2022-08-20T03:41:29.118Z,77.80
2022-08-20T03:43:57.450Z,77.80
2022-08-20T03:46:26.240Z,78.30
2022-08-20T03:49:00.321Z,78.40
2022-08-20T03:51:30.709Z,78.80
2022-08-20T03:53:59.077Z,78.60
2022-08-20T03:56:27.503Z,78.50
2022-08-20T03:58:55.918Z,79.00
2022-08-20T04:01:45.438Z,78.90
2022-08-20T04:04:12.146Z,79.20
2022-08-20T04:06:42.414Z,78.80
2022-08-20T04:09:12.331Z,78.80
2022-08-20T04:11:42.361Z,79.10
2022-08-20T04:14:16.636Z,79.40
2022-08-20T04:16:47.119Z,79.70
2022-08-20T04:19:17.182Z,79.70
2022-08-20T04:21:48.669Z,80.00
2022-08-20T04:24:31.127Z,79.90
2022-08-20T04:27:02.780Z,80.10
2022-08-20T04:29:35.349Z,81.00
2022-08-20T04:32:06.720Z,81.20
2022-08-20T04:34:35.414Z,81.90
2022-08-20T04:37:04.565Z,81.40
2022-08-20T04:39:33.352Z,81.30
2022-08-20T04:42:01.196Z,81.50
2022-08-20T04:44:28.977Z,81.30
2022-08-20T04:46:56.907Z,81.60
2022-08-20T04:49:26.441Z,81.70
2022-08-20T04:51:55.663Z,81.50
2022-08-20T04:54:23.381Z,82.00
2022-08-20T04:56:51.425Z,82.20
2022-08-20T04:59:19.566Z,82.00
2022-08-20T05:01:47.367Z,81.80
2022-08-20T05:04:15.118Z,82.00
2022-08-20T05:06:42.985Z,82.30
2022-08-20T05:09:10.803Z,82.30
2022-08-20T05:11:38.571Z,82.20
2022-08-20T05:14:09.535Z,81.90
2022-08-20T05:16:40.516Z,82.00
2022-08-20T05:19:13.440Z,81.80
2022-08-20T05:21:41.739Z,82.20
2022-08-20T05:24:10.538Z,82.20
2022-08-20T05:26:38.452Z,82.90
2022-08-20T05:29:07.579Z,83.10
2022-08-20T05:31:36.170Z,83.40
2022-08-20T05:34:12.052Z,84.10
2022-08-20T05:36:44.145Z,84.20
2022-08-20T05:39:13.466Z,84.30
2022-08-20T05:41:41.554Z,84.40
2022-08-20T05:44:13.340Z,84.60
2022-08-20T05:46:44.756Z,84.20
2022-08-20T05:49:17.025Z,84.40
2022-08-20T05:51:44.928Z,84.40
2022-08-20T05:54:14.197Z,84.30
2022-08-20T05:56:42.699Z,83.80
2022-08-20T05:59:12.637Z,84.70
2022-08-20T06:01:42.216Z,84.10
2022-08-20T06:04:31.874Z,83.70
2022-08-20T06:07:06.128Z,83.40
2022-08-20T06:09:35.133Z,83.40
2022-08-20T06:12:06.646Z,83.00
2022-08-20T06:14:35.440Z,83.20
2022-08-20T06:17:17.085Z,83.30
2022-08-20T06:19:47.205Z,83.30
2022-08-20T06:22:19.175Z,83.20
2022-08-20T06:24:52.753Z,83.20
2022-08-20T06:27:21.349Z,83.00
2022-08-20T06:29:50.973Z,82.70
2022-08-20T06:32:28.882Z,82.70
2022-08-20T06:35:03.687Z,82.50
2022-08-20T06:37:33.794Z,82.30
2022-08-20T06:40:24.913Z,82.60
2022-08-20T06:42:53.206Z,82.60
2022-08-20T06:45:25.407Z,82.10
2022-08-20T06:48:01.920Z,82.30
2022-08-20T06:50:44.461Z,82.80
2022-08-20T06:53:18.992Z,82.50
2022-08-20T06:55:52.967Z,82.20
2022-08-20T06:58:37.513Z,82.10
2022-08-20T07:01:12.392Z,82.10
2022-08-20T07:03:55.472Z,82.10
2022-08-20T07:06:25.951Z,81.80
2022-08-20T07:08:55.853Z,81.40
2022-08-20T07:11:28.043Z,81.50
2022-08-20T07:13:58.393Z,81.40
2022-08-20T07:16:27.262Z,80.80
2022-08-20T07:18:55.250Z,80.70
2022-08-20T07:21:23.236Z,80.70
2022-08-20T07:23:51.072Z,81.00
2022-08-20T07:26:19.403Z,80.40
2022-08-20T07:28:47.372Z,80.60
2022-08-20T07:31:34.900Z,79.80
2022-08-20T07:34:04.307Z,79.90
2022-08-20T07:36:33.427Z,79.80
2022-08-20T07:39:05.920Z,79.80
2022-08-20T07:41:34.364Z,79.30
2022-08-20T07:44:02.733Z,79.00
2022-08-20T07:46:31.897Z,78.50
2022-08-20T07:49:00.127Z,78.10
2022-08-20T07:51:28.600Z,77.70
2022-08-20T07:53:58.399Z,78.10
2022-08-20T07:56:26.620Z,77.80
2022-08-20T07:58:59.206Z,76.80
2022-08-20T08:01:30.990Z,77.10
2022-08-20T08:04:01.383Z,76.30
2022-08-20T08:06:31.571Z,76.20
2022-08-20T08:09:10.169Z,75.80
2022-08-20T08:11:46.363Z,75.50
2022-08-20T08:14:23.588Z,75.80
2022-08-20T08:16:57.374Z,76.00
2022-08-20T08:19:30.937Z,77.00
2022-08-20T08:21:58.823Z,80.10
2022-08-20T08:24:28.452Z,82.80
2022-08-20T08:26:56.584Z,82.70
2022-08-20T08:29:24.556Z,82.30
2022-08-20T08:31:52.316Z,82.00
2022-08-20T08:34:20.196Z,81.90
2022-08-20T08:36:48.021Z,81.80
2022-08-20T08:39:16.260Z,80.90
2022-08-20T08:41:51.636Z,80.00
2022-08-20T08:44:30.405Z,78.70
2022-08-20T08:47:18.735Z,77.80
2022-08-20T08:49:47.864Z,76.50
2022-08-20T08:52:33.503Z,77.20
2022-08-20T08:55:06.463Z,75.90
2022-08-20T08:57:34.398Z,75.40
2022-08-20T09:00:12.045Z,74.70
2022-08-20T09:02:42.600Z,74.00
2022-08-20T09:05:16.859Z,73.70
2022-08-20T09:07:51.621Z,72.80
2022-08-20T09:10:23.625Z,74.00
2022-08-20T09:12:52.490Z,72.30
2022-08-20T09:15:21.375Z,73.70
2022-08-20T09:17:49.436Z,72.20
2022-08-20T09:20:18.345Z,71.40
2022-08-20T09:22:46.177Z,71.30
2022-08-20T09:25:16.313Z,71.90
2022-08-20T09:27:44.111Z,71.70
2022-08-20T09:30:16.026Z,71.80
2022-08-20T09:32:46.341Z,71.50
2022-08-20T09:35:14.106Z,71.10
2022-08-20T09:37:42.031Z,69.90
2022-08-20T09:40:10.970Z,70.60
2022-08-20T09:42:41.643Z,69.60
2022-08-20T09:45:11.653Z,70.30
2022-08-20T09:47:54.829Z,70.40
2022-08-20T09:50:24.339Z,70.10
2022-08-20T09:52:54.322Z,70.90
2022-08-20T09:55:33.837Z,70.30
2022-08-20T09:58:41.406Z,71.40
2022-08-20T10:01:15.161Z,72.00
2022-08-20T10:03:45.341Z,72.00
2022-08-20T10:06:14.859Z,70.40
2022-08-20T10:08:43.910Z,70.50
2022-08-20T10:11:12.229Z,71.20
2022-08-20T10:13:40.115Z,71.50
2022-08-20T10:16:07.892Z,72.10
2022-08-20T10:18:36.875Z,72.90
2022-08-20T10:21:11.269Z,74.50
2022-08-20T10:23:39.175Z,75.00
2022-08-20T10:26:11.810Z,74.70
2022-08-20T10:28:39.761Z,73.40
2022-08-20T10:31:09.701Z,73.50
2022-08-20T10:33:39.669Z,73.40
2022-08-20T10:36:16.065Z,73.30
2022-08-20T10:38:44.926Z,72.40
2022-08-20T10:41:12.773Z,73.90
2022-08-20T10:43:40.619Z,73.40
2022-08-20T10:46:09.237Z,73.80
2022-08-20T10:48:37.498Z,73.20
2022-08-20T10:51:05.895Z,73.00
2022-08-20T10:53:34.088Z,72.60
2022-08-20T10:56:02.182Z,73.30
2022-08-20T10:58:39.540Z,72.50
2022-08-20T11:01:08.232Z,72.20
2022-08-20T11:03:36.319Z,73.40
2022-08-20T11:06:04.302Z,73.10
2022-08-20T11:08:34.191Z,72.40
2022-08-20T11:11:05.443Z,72.70
2022-08-20T11:13:34.892Z,73.00
2022-08-20T11:16:04.333Z,73.00
2022-08-20T11:18:33.122Z,72.50
2022-08-20T11:21:01.555Z,72.90
2022-08-20T11:23:29.393Z,72.40
2022-08-20T11:25:58.839Z,71.20
2022-08-20T11:28:31.693Z,71.60
2022-08-20T11:31:01.520Z,72.20
2022-08-20T11:33:29.603Z,70.80
2022-08-20T11:35:57.560Z,70.60
2022-08-20T11:38:27.030Z,70.70
2022-08-20T11:40:54.823Z,70.70
2022-08-20T11:43:22.787Z,69.40
2022-08-20T11:45:55.326Z,69.50
2022-08-20T11:48:23.828Z,69.10
2022-08-20T11:50:51.764Z,68.50
2022-08-20T11:53:19.602Z,68.10
2022-08-20T11:55:48.043Z,67.40
2022-08-20T11:58:17.470Z,67.00
2022-08-20T12:00:45.858Z,66.30
2022-08-20T12:03:13.690Z,67.00
2022-08-20T12:05:45.190Z,67.20
2022-08-20T12:08:27.568Z,66.90
2022-08-20T12:11:02.300Z,66.40
2022-08-20T12:13:48.996Z,66.20
2022-08-20T12:16:20.310Z,66.70
2022-08-20T12:18:48.970Z,67.10
2022-08-20T12:21:17.636Z,66.50
2022-08-20T12:23:45.624Z,66.60
2022-08-20T12:26:13.608Z,67.00
2022-08-20T12:28:41.366Z,66.50
2022-08-20T12:31:09.208Z,66.40
2022-08-20T12:33:37.105Z,65.00
2022-08-20T12:36:05.270Z,65.50
2022-08-20T12:38:33.119Z,65.20
2022-08-20T12:41:01.323Z,64.40
2022-08-20T12:43:29.086Z,64.60
2022-08-20T12:45:56.925Z,62.30
2022-08-20T12:48:24.956Z,62.60
2022-08-20T12:50:52.926Z,61.20
2022-08-20T12:53:20.871Z,60.60
2022-08-20T12:55:48.664Z,61.60
2022-08-20T12:58:16.503Z,62.50
2022-08-20T13:00:50.677Z,62.00
2022-08-20T13:03:21.013Z,60.80
2022-08-20T13:05:49.956Z,61.60
2022-08-20T13:08:19.263Z,61.50
2022-08-20T13:10:47.710Z,62.70
2022-08-20T13:13:20.373Z,62.20
2022-08-20T13:15:50.945Z,59.10
2022-08-20T13:18:19.944Z,58.00
2022-08-20T13:20:48.450Z,59.40
2022-08-20T13:23:16.710Z,59.30
2022-08-20T13:25:44.543Z,58.90
2022-08-20T13:28:12.364Z,57.10
2022-08-20T13:30:41.567Z,57.40
2022-08-20T13:33:09.736Z,57.40
2022-08-20T13:35:37.834Z,56.40
2022-08-20T13:38:05.618Z,52.70
2022-08-20T13:40:33.565Z,54.60
2022-08-20T13:43:06.587Z,52.50
2022-08-20T13:45:38.969Z,51.70
2022-08-20T13:48:14.608Z,52.00
2022-08-20T13:50:46.753Z,49.60
2022-08-20T13:53:16.289Z,49.40
2022-08-20T13:55:45.209Z,49.30
2022-08-20T13:58:13.267Z,49.50
2022-08-20T14:00:41.111Z,48.20
2022-08-20T14:03:08.876Z,47.90
2022-08-20T14:05:38.184Z,47.70
2022-08-20T14:08:23.116Z,46.50
2022-08-20T14:10:51.915Z,47.50
2022-08-20T14:13:24.745Z,46.00
2022-08-20T14:15:53.307Z,44.90
2022-08-20T14:18:21.080Z,45.10
2022-08-20T14:20:49.420Z,41.40
2022-08-20T14:23:17.385Z,42.10
2022-08-20T14:25:47.850Z,41.60
2022-08-20T14:28:24.286Z,42.30
2022-08-20T14:30:53.719Z,42.50
2022-08-20T14:33:23.849Z,41.60
2022-08-20T14:35:52.288Z,41.40
2022-08-20T14:38:20.147Z,40.40
2022-08-20T14:40:50.205Z,39.80
2022-08-20T14:43:18.543Z,39.90
2022-08-20T14:45:46.353Z,40.00
2022-08-20T14:48:15.053Z,41.90
2022-08-20T14:50:43.367Z,41.70
2022-08-20T14:53:11.181Z,38.30
2022-08-20T14:55:39.255Z,39.00
2022-08-20T14:58:12.830Z,39.00
2022-08-20T15:00:42.285Z,39.30
2022-08-20T15:03:10.526Z,38.40
2022-08-20T15:05:39.208Z,35.60
2022-08-20T15:08:10.814Z,37.00
2022-08-20T15:10:39.885Z,34.50
2022-08-20T15:13:08.610Z,34.40
2022-08-20T15:15:36.916Z,33.80
2022-08-20T15:18:04.748Z,35.10
2022-08-20T15:20:34.992Z,32.20
2022-08-20T15:23:04.509Z,34.40
2022-08-20T15:25:36.453Z,33.60
2022-08-20T15:28:09.042Z,35.40
2022-08-20T15:30:41.052Z,34.50
2022-08-20T15:33:10.588Z,35.20
2022-08-20T15:35:38.612Z,34.80
2022-08-20T15:38:06.691Z,34.70
2022-08-20T15:40:34.665Z,35.60
2022-08-20T15:43:04.770Z,35.30
2022-08-20T15:45:34.273Z,35.10
2022-08-20T15:48:08.698Z,35.00
2022-08-20T15:51:00.551Z,33.60
2022-08-20T15:53:31.183Z,33.30
2022-08-20T15:56:29.928Z,33.90
2022-08-20T15:59:29.575Z,34.40
2022-08-20T16:02:26.038Z,34.50
2022-08-20T16:05:12.699Z,34.80
2022-08-20T16:07:46.767Z,34.90
2022-08-20T16:10:30.457Z,35.20
2022-08-20T16:13:02.316Z,35.80
2022-08-20T16:15:35.796Z,34.60
2022-08-20T16:18:16.543Z,35.00
2022-08-20T16:20:48.943Z,34.70
2022-08-20T16:23:20.253Z,35.20
2022-08-20T16:26:08.792Z,35.70
2022-08-20T16:29:11.531Z,35.70
2022-08-20T16:32:03.570Z,35.10
2022-08-20T16:34:51.733Z,35.50
2022-08-20T16:37:51.453Z,35.80
2022-08-20T16:40:32.816Z,36.10
2022-08-20T16:43:05.893Z,36.10
2022-08-20T16:45:36.251Z,36.00
2022-08-20T16:48:07.288Z,34.50
2022-08-20T16:51:06.778Z,35.50
2022-08-20T16:53:35.655Z,35.50
2022-08-20T16:56:05.392Z,35.60
2022-08-20T16:58:33.190Z,36.20
2022-08-20T17:01:11.510Z,34.60
2022-08-20T17:03:49.846Z,31.80
2022-08-20T17:06:46.841Z,32.40
2022-08-20T17:09:43.532Z,33.70
2022-08-20T17:12:24.193Z,34.20
2022-08-20T17:14:58.489Z,33.60
2022-08-20T17:17:36.208Z,34.40
2022-08-20T17:20:20.050Z,34.20
2022-08-20T17:23:11.901Z,32.50
2022-08-20T17:25:39.767Z,33.10
2022-08-20T17:28:20.640Z,34.40
2022-08-20T17:30:49.110Z,34.80
2022-08-20T17:33:28.881Z,34.70
2022-08-20T17:36:17.548Z,34.10
2022-08-20T17:38:52.338Z,33.50
2022-08-20T17:41:32.575Z,33.60
2022-08-20T17:44:17.806Z,33.80
2022-08-20T17:46:48.950Z,34.40
2022-08-20T17:49:35.005Z,34.50
2022-08-20T17:52:11.723Z,35.10
2022-08-20T17:54:44.805Z,35.50
2022-08-20T17:57:14.976Z,35.60
2022-08-20T18:00:01.671Z,35.70
2022-08-20T18:02:34.406Z,36.00
2022-08-20T18:05:05.548Z,36.00
2022-08-20T18:08:14.856Z,36.40
2022-08-20T18:11:28.227Z,36.70
2022-08-20T18:14:17.630Z,37.00
2022-08-20T18:17:09.792Z,37.20
2022-08-20T18:20:18.263Z,37.20
2022-08-20T18:23:06.205Z,37.30
2022-08-20T18:25:54.344Z,37.60
2022-08-20T18:28:38.649Z,37.80
2022-08-20T18:31:10.412Z,37.90
2022-08-20T18:33:42.571Z,38.40
2022-08-20T18:36:25.188Z,38.20
2022-08-20T18:39:30.133Z,38.30
2022-08-20T18:41:59.907Z,38.30
2022-08-20T18:44:48.006Z,38.60
2022-08-20T18:47:33.883Z,38.40
2022-08-20T18:50:16.373Z,38.70
2022-08-20T18:52:50.466Z,39.10
2022-08-20T18:55:39.857Z,39.10
2022-08-20T18:58:12.257Z,39.10
2022-08-20T19:00:49.646Z,39.40
2022-08-20T19:03:46.161Z,39.50
2022-08-20T19:06:28.825Z,39.70
2022-08-20T19:09:34.297Z,39.90
2022-08-20T19:12:57.334Z,40.20
2022-08-20T19:15:26.327Z,40.20
2022-08-20T19:18:09.954Z,40.50
2022-08-20T19:20:55.584Z,40.70
2022-08-20T19:23:27.828Z,40.70
2022-08-20T19:25:59.777Z,41.60
2022-08-20T19:28:40.764Z,40.90
2022-08-20T19:31:19.077Z,41.00
2022-08-20T19:33:51.592Z,41.20
2022-08-20T19:36:28.464Z,41.30
2022-08-20T19:39:03.713Z,41.40
2022-08-20T19:41:39.948Z,41.60
2022-08-20T19:44:07.896Z,41.80
2022-08-20T19:46:44.029Z,42.00
2022-08-20T19:49:27.379Z,42.00
2022-08-20T19:52:00.786Z,42.30
2022-08-20T19:54:29.675Z,42.20
2022-08-20T19:57:04.670Z,42.20
2022-08-20T19:59:32.545Z,42.50
2022-08-20T20:02:20.537Z,42.50
2022-08-20T20:04:55.085Z,42.90
2022-08-20T20:07:40.703Z,43.10
2022-08-20T20:10:22.055Z,43.30
2022-08-20T20:12:49.890Z,43.30
2022-08-20T20:15:18.809Z,43.50
2022-08-20T20:17:46.955Z,43.70
2022-08-20T20:20:34.965Z,43.70
2022-08-20T20:23:16.777Z,43.70
2022-08-20T20:25:49.315Z,43.70
2022-08-20T20:28:24.333Z,43.70
2022-08-20T20:30:52.229Z,43.80
2022-08-20T20:33:32.261Z,43.50
2022-08-20T20:36:44.972Z,43.60
2022-08-20T20:39:35.991Z,43.70
2022-08-20T20:42:10.200Z,43.70
2022-08-20T20:44:43.745Z,43.90
2022-08-20T20:47:36.027Z,43.90
2022-08-20T20:50:10.985Z,43.80
2022-08-20T20:52:54.635Z,44.00
2022-08-20T20:55:33.088Z,43.70
2022-08-20T20:58:02.678Z,43.70
2022-08-20T21:00:34.364Z,43.70
2022-08-20T21:03:04.044Z,43.70
2022-08-20T21:05:32.914Z,43.60
2022-08-20T21:08:03.998Z,43.60
2022-08-20T21:10:37.125Z,43.60
2022-08-20T21:13:08.103Z,43.80
2022-08-20T21:15:39.009Z,44.10
2022-08-20T21:18:09.209Z,44.20
2022-08-20T21:20:37.367Z,44.10
2022-08-20T21:23:05.292Z,44.10
2022-08-20T21:25:34.309Z,44.40
2022-08-20T21:28:02.521Z,44.30
2022-08-20T21:30:31.964Z,44.70
2022-08-20T21:33:00.056Z,44.70
2022-08-20T21:35:28.035Z,44.60
2022-08-20T21:37:55.802Z,44.50
2022-08-20T21:40:23.686Z,44.60
2022-08-20T21:42:56.701Z,44.90
2022-08-20T21:45:28.466Z,45.00
2022-08-20T21:47:57.296Z,45.00
2022-08-20T21:50:25.797Z,45.30
2022-08-20T21:52:55.264Z,45.30
2022-08-20T21:55:33.053Z,45.40
2022-08-20T21:58:04.770Z,45.60
2022-08-20T22:00:53.519Z,45.60
2022-08-20T22:03:26.956Z,46.00
2022-08-20T22:05:55.962Z,45.90
2022-08-20T22:08:26.082Z,46.00
2022-08-20T22:10:58.298Z,46.00
2022-08-20T22:13:31.801Z,45.90
2022-08-20T22:16:02.515Z,46.00
2022-08-20T22:18:30.655Z,46.20
2022-08-20T22:20:59.109Z,46.50
2022-08-20T22:23:27.544Z,46.70
2022-08-20T22:25:55.297Z,46.80
2022-08-20T22:28:23.515Z,46.80
2022-08-20T22:30:51.352Z,47.20
2022-08-20T22:33:23.409Z,47.30
2022-08-20T22:35:56.712Z,47.40
2022-08-20T22:38:25.805Z,47.70
2022-08-20T22:40:54.166Z,47.50
2022-08-20T22:43:23.229Z,47.90
2022-08-20T22:45:58.276Z,48.10
2022-08-20T22:48:26.488Z,48.20
2022-08-20T22:50:54.886Z,48.50
2022-08-20T22:53:26.187Z,48.40
2022-08-20T22:55:54.786Z,48.50
2022-08-20T22:58:30.901Z,48.40
2022-08-20T23:01:01.201Z,48.50
2022-08-20T23:03:39.452Z,48.70
2022-08-20T23:06:09.524Z,48.90
2022-08-20T23:08:38.173Z,49.20
2022-08-20T23:11:06.577Z,49.40
2022-08-20T23:13:34.932Z,49.60
2022-08-20T23:16:03.405Z,49.60
2022-08-20T23:18:31.652Z,49.70
2022-08-20T23:21:00.654Z,50.00
2022-08-20T23:23:28.563Z,51.10
2022-08-20T23:25:56.569Z,50.60
2022-08-20T23:28:26.064Z,50.40
2022-08-20T23:30:53.988Z,50.30
2022-08-20T23:33:22.023Z,50.30
2022-08-20T23:35:50.257Z,50.40
2022-08-20T23:38:20.434Z,50.60
2022-08-20T23:40:48.327Z,50.50
2022-08-20T23:43:18.989Z,50.50
2022-08-20T23:45:47.163Z,50.80
2022-08-20T23:48:14.996Z,50.60
2022-08-20T23:50:42.861Z,50.90
2022-08-20T23:53:10.776Z,51.00
2022-08-20T23:55:38.597Z,51.10
2022-08-20T23:58:06.370Z,51.00
